sensor_id;sensor_type;location;lat;lon;timestamp;P1;durP1;ratioP1;P2;durP2;ratioP2
795;SDS011;381;48.770;9.188;2023-04-15T00:03:53;3.67;;;3.20;;
795;SDS011;381;48.770;9.188;2023-04-15T00:08:58;3.67;;;3.40;;
795;SDS011;381;48.770;9.188;2023-04-15T00:14:00;5.57;;;3.60;;
795;SDS011;381;48.770;9.188;2023-04-15T00:19:02;10.23;;;3.77;;
795;SDS011;381;48.770;9.188;2023-04-15T00:24:05;4.53;;;3.87;;
795;SDS011;381;48.770;9.188;2023-04-15T00:29:07;5.53;;;3.80;;
795;SDS011;381;48.770;9.188;2023-04-15T00:34:09;6.30;;;3.20;;
795;SDS011;381;48.770;9.188;2023-04-15T00:39:13;4.30;;;3.67;;
795;SDS011;381;48.770;9.188;2023-04-15T00:44:16;4.03;;;3.67;;
795;SDS011;381;48.770;9.188;2023-04-15T00:49:19;7.10;;;4.50;;
795;SDS011;381;48.770;9.188;2023-04-15T00:54:22;12.10;;;7.93;;
795;SDS011;381;48.770;9.188;2023-04-15T00:59:25;5.67;;;4.90;;
795;SDS011;381;48.770;9.188;2023-04-15T01:04:27;5.17;;;4.67;;
795;SDS011;381;48.770;9.188;2023-04-15T01:09:33;4.17;;;3.87;;
795;SDS011;381;48.770;9.188;2023-04-15T01:14:35;4.27;;;3.93;;
795;SDS011;381;48.770;9.188;2023-04-15T01:19:37;6.67;;;4.20;;
795;SDS011;381;48.770;9.188;2023-04-15T01:24:40;12.07;;;7.93;;
795;SDS011;381;48.770;9.188;2023-04-15T01:29:49;19.70;;;10.50;;
795;SDS011;381;48.770;9.188;2023-04-15T01:34:51;5.43;;;4.60;;
795;SDS011;381;48.770;9.188;2023-04-15T01:39:57;6.53;;;4.60;;
795;SDS011;381;48.770;9.188;2023-04-15T01:45:01;5.80;;;4.60;;
795;SDS011;381;48.770;9.188;2023-04-15T01:50:04;4.60;;;4.20;;
795;SDS011;381;48.770;9.188;2023-04-15T01:55:08;7.37;;;5.13;;
795;SDS011;381;48.770;9.188;2023-04-15T02:00:13;8.67;;;6.23;;
795;SDS011;381;48.770;9.188;2023-04-15T02:05:16;10.67;;;7.07;;
795;SDS011;381;48.770;9.188;2023-04-15T02:10:21;24.87;;;12.27;;
795;SDS011;381;48.770;9.188;2023-04-15T02:15:24;7.20;;;5.67;;
795;SDS011;381;48.770;9.188;2023-04-15T02:20:26;5.20;;;4.80;;
795;SDS011;381;48.770;9.188;2023-04-15T02:25:31;8.90;;;5.43;;
795;SDS011;381;48.770;9.188;2023-04-15T02:30:35;10.20;;;4.97;;
795;SDS011;381;48.770;9.188;2023-04-15T02:35:37;5.57;;;4.57;;
795;SDS011;381;48.770;9.188;2023-04-15T02:40:43;7.60;;;5.47;;
795;SDS011;381;48.770;9.188;2023-04-15T02:45:48;5.13;;;4.67;;
795;SDS011;381;48.770;9.188;2023-04-15T02:50:51;6.10;;;4.70;;
795;SDS011;381;48.770;9.188;2023-04-15T02:55:53;5.30;;;4.37;;
795;SDS011;381;48.770;9.188;2023-04-15T03:00:57;10.30;;;5.60;;
795;SDS011;381;48.770;9.188;2023-04-15T03:05:59;5.43;;;4.93;;
795;SDS011;381;48.770;9.188;2023-04-15T03:11:02;12.60;;;4.93;;
795;SDS011;381;48.770;9.188;2023-04-15T03:16:07;6.00;;;4.57;;
795;SDS011;381;48.770;9.188;2023-04-15T03:21:09;4.87;;;4.47;;
795;SDS011;381;48.770;9.188;2023-04-15T03:26:22;4.30;;;3.97;;
795;SDS011;381;48.770;9.188;2023-04-15T03:31:27;4.97;;;4.47;;
795;SDS011;381;48.770;9.188;2023-04-15T03:36:29;5.83;;;4.20;;
795;SDS011;381;48.770;9.188;2023-04-15T03:41:32;8.40;;;4.30;;
795;SDS011;381;48.770;9.188;2023-04-15T03:46:36;7.03;;;4.63;;
795;SDS011;381;48.770;9.188;2023-04-15T03:51:38;7.70;;;4.80;;
795;SDS011;381;48.770;9.188;2023-04-15T03:56:40;5.30;;;4.33;;
795;SDS011;381;48.770;9.188;2023-04-15T04:01:43;4.93;;;4.53;;
795;SDS011;381;48.770;9.188;2023-04-15T04:06:46;6.33;;;4.30;;
795;SDS011;381;48.770;9.188;2023-04-15T04:11:48;7.20;;;4.00;;
795;SDS011;381;48.770;9.188;2023-04-15T04:16:53;7.43;;;4.10;;
795;SDS011;381;48.770;9.188;2023-04-15T04:21:55;4.60;;;4.20;;
795;SDS011;381;48.770;9.188;2023-04-15T04:27:01;6.87;;;4.57;;
795;SDS011;381;48.770;9.188;2023-04-15T04:32:04;6.07;;;4.30;;
795;SDS011;381;48.770;9.188;2023-04-15T04:37:07;8.13;;;5.13;;
795;SDS011;381;48.770;9.188;2023-04-15T04:42:09;4.90;;;4.10;;
795;SDS011;381;48.770;9.188;2023-04-15T04:47:12;5.80;;;3.60;;
795;SDS011;381;48.770;9.188;2023-04-15T04:52:14;5.87;;;4.00;;
795;SDS011;381;48.770;9.188;2023-04-15T04:57:16;13.30;;;10.37;;
795;SDS011;381;48.770;9.188;2023-04-15T05:02:19;6.73;;;6.13;;
795;SDS011;381;48.770;9.188;2023-04-15T05:07:21;7.07;;;5.47;;
795;SDS011;381;48.770;9.188;2023-04-15T05:12:24;8.03;;;5.47;;
795;SDS011;381;48.770;9.188;2023-04-15T05:17:27;5.20;;;4.70;;
795;SDS011;381;48.770;9.188;2023-04-15T05:22:31;5.20;;;4.70;;
795;SDS011;381;48.770;9.188;2023-04-15T05:27:33;4.90;;;4.50;;
795;SDS011;381;48.770;9.188;2023-04-15T05:32:36;8.70;;;4.57;;
795;SDS011;381;48.770;9.188;2023-04-15T05:37:38;10.27;;;5.97;;
795;SDS011;381;48.770;9.188;2023-04-15T05:42:40;6.27;;;4.77;;
795;SDS011;381;48.770;9.188;2023-04-15T05:47:44;7.27;;;5.17;;
795;SDS011;381;48.770;9.188;2023-04-15T05:52:46;8.87;;;5.73;;
795;SDS011;381;48.770;9.188;2023-04-15T05:57:48;5.67;;;5.17;;
795;SDS011;381;48.770;9.188;2023-04-15T06:02:52;4.87;;;4.40;;
795;SDS011;381;48.770;9.188;2023-04-15T06:07:57;6.57;;;5.20;;
795;SDS011;381;48.770;9.188;2023-04-15T06:12:59;7.50;;;5.70;;
795;SDS011;381;48.770;9.188;2023-04-15T06:18:02;7.73;;;5.30;;
795;SDS011;381;48.770;9.188;2023-04-15T06:23:04;5.10;;;4.70;;
795;SDS011;381;48.770;9.188;2023-04-15T06:28:06;7.43;;;6.50;;
795;SDS011;381;48.770;9.188;2023-04-15T06:33:10;6.17;;;5.60;;
795;SDS011;381;48.770;9.188;2023-04-15T06:38:12;6.13;;;5.53;;
795;SDS011;381;48.770;9.188;2023-04-15T06:43:14;6.20;;;5.30;;
795;SDS011;381;48.770;9.188;2023-04-15T06:48:18;6.03;;;5.53;;
795;SDS011;381;48.770;9.188;2023-04-15T06:53:20;7.40;;;6.03;;
795;SDS011;381;48.770;9.188;2023-04-15T06:58:22;7.77;;;6.97;;
795;SDS011;381;48.770;9.188;2023-04-15T07:03:25;8.70;;;7.90;;
795;SDS011;381;48.770;9.188;2023-04-15T07:08:28;9.93;;;8.73;;
795;SDS011;381;48.770;9.188;2023-04-15T07:13:30;8.77;;;7.97;;
795;SDS011;381;48.770;9.188;2023-04-15T07:18:34;8.97;;;7.47;;
795;SDS011;381;48.770;9.188;2023-04-15T07:23:36;8.83;;;7.93;;
795;SDS011;381;48.770;9.188;2023-04-15T07:28:38;9.60;;;7.97;;
795;SDS011;381;48.770;9.188;2023-04-15T07:33:42;9.43;;;8.30;;
795;SDS011;381;48.770;9.188;2023-04-15T07:38:44;10.87;;;6.80;;
795;SDS011;381;48.770;9.188;2023-04-15T07:43:46;10.40;;;7.60;;
795;SDS011;381;48.770;9.188;2023-04-15T07:48:50;7.80;;;7.00;;
795;SDS011;381;48.770;9.188;2023-04-15T07:53:52;7.80;;;7.00;;
795;SDS011;381;48.770;9.188;2023-04-15T07:58:54;8.70;;;7.27;;
795;SDS011;381;48.770;9.188;2023-04-15T08:03:58;7.70;;;6.87;;
795;SDS011;381;48.770;9.188;2023-04-15T08:09:00;7.60;;;6.00;;
795;SDS011;381;48.770;9.188;2023-04-15T08:14:02;7.17;;;6.43;;
795;SDS011;381;48.770;9.188;2023-04-15T08:19:05;7.23;;;6.57;;
795;SDS011;381;48.770;9.188;2023-04-15T08:24:07;7.13;;;5.77;;
795;SDS011;381;48.770;9.188;2023-04-15T08:29:10;6.13;;;5.50;;
795;SDS011;381;48.770;9.188;2023-04-15T08:34:14;6.43;;;5.63;;
795;SDS011;381;48.770;9.188;2023-04-15T08:39:17;6.20;;;5.40;;
795;SDS011;381;48.770;9.188;2023-04-15T08:44:19;5.47;;;4.97;;
795;SDS011;381;48.770;9.188;2023-04-15T08:49:24;6.00;;;4.97;;
795;SDS011;381;48.770;9.188;2023-04-15T08:54:28;5.67;;;4.97;;
795;SDS011;381;48.770;9.188;2023-04-15T08:59:30;7.20;;;5.50;;
795;SDS011;381;48.770;9.188;2023-04-15T09:04:34;5.90;;;5.33;;
795;SDS011;381;48.770;9.188;2023-04-15T09:09:36;6.40;;;4.77;;
795;SDS011;381;48.770;9.188;2023-04-15T09:14:39;5.20;;;4.83;;
795;SDS011;381;48.770;9.188;2023-04-15T09:19:44;6.40;;;5.70;;
795;SDS011;381;48.770;9.188;2023-04-15T09:24:46;5.90;;;5.20;;
795;SDS011;381;48.770;9.188;2023-04-15T09:29:48;8.40;;;4.43;;
795;SDS011;381;48.770;9.188;2023-04-15T09:34:52;5.63;;;4.60;;
795;SDS011;381;48.770;9.188;2023-04-15T09:39:54;4.20;;;3.67;;
795;SDS011;381;48.770;9.188;2023-04-15T09:45:06;4.37;;;3.60;;
795;SDS011;381;48.770;9.188;2023-04-15T09:50:10;4.30;;;3.93;;
795;SDS011;381;48.770;9.188;2023-04-15T09:55:14;4.90;;;4.60;;
795;SDS011;381;48.770;9.188;2023-04-15T10:00:18;5.63;;;4.07;;
795;SDS011;381;48.770;9.188;2023-04-15T10:05:22;4.57;;;3.70;;
795;SDS011;381;48.770;9.188;2023-04-15T10:10:25;4.20;;;3.80;;
795;SDS011;381;48.770;9.188;2023-04-15T10:15:27;6.10;;;3.87;;
795;SDS011;381;48.770;9.188;2023-04-15T10:20:31;4.57;;;4.17;;
795;SDS011;381;48.770;9.188;2023-04-15T10:25:34;3.83;;;3.37;;
795;SDS011;381;48.770;9.188;2023-04-15T10:30:37;3.43;;;3.13;;
795;SDS011;381;48.770;9.188;2023-04-15T10:35:41;5.90;;;5.33;;
795;SDS011;381;48.770;9.188;2023-04-15T10:40:45;4.70;;;4.20;;
795;SDS011;381;48.770;9.188;2023-04-15T10:45:48;7.40;;;3.50;;
795;SDS011;381;48.770;9.188;2023-04-15T10:50:56;4.80;;;4.40;;
795;SDS011;381;48.770;9.188;2023-04-15T10:55:59;3.40;;;3.10;;
795;SDS011;381;48.770;9.188;2023-04-15T11:01:01;4.80;;;4.07;;
795;SDS011;381;48.770;9.188;2023-04-15T11:06:15;3.73;;;3.40;;
795;SDS011;381;48.770;9.188;2023-04-15T11:11:17;5.10;;;4.17;;
795;SDS011;381;48.770;9.188;2023-04-15T11:16:20;4.63;;;4.23;;
795;SDS011;381;48.770;9.188;2023-04-15T11:21:24;4.70;;;4.40;;
795;SDS011;381;48.770;9.188;2023-04-15T11:26:27;4.53;;;4.13;;
795;SDS011;381;48.770;9.188;2023-04-15T11:31:29;5.13;;;4.63;;
795;SDS011;381;48.770;9.188;2023-04-15T11:36:33;5.00;;;3.50;;
795;SDS011;381;48.770;9.188;2023-04-15T11:41:35;4.40;;;4.00;;
795;SDS011;381;48.770;9.188;2023-04-15T11:46:37;6.20;;;4.10;;
795;SDS011;381;48.770;9.188;2023-04-15T11:51:40;4.80;;;4.30;;
795;SDS011;381;48.770;9.188;2023-04-15T11:56:42;4.33;;;4.00;;
795;SDS011;381;48.770;9.188;2023-04-15T12:01:51;4.00;;;3.70;;
795;SDS011;381;48.770;9.188;2023-04-15T12:06:55;4.70;;;4.00;;
795;SDS011;381;48.770;9.188;2023-04-15T12:12:05;6.70;;;4.80;;
795;SDS011;381;48.770;9.188;2023-04-15T12:17:07;5.30;;;4.80;;
795;SDS011;381;48.770;9.188;2023-04-15T12:22:14;5.90;;;5.00;;
795;SDS011;381;48.770;9.188;2023-04-15T12:27:17;5.80;;;4.73;;
795;SDS011;381;48.770;9.188;2023-04-15T12:32:21;4.57;;;4.17;;
795;SDS011;381;48.770;9.188;2023-04-15T12:37:24;5.97;;;4.27;;
795;SDS011;381;48.770;9.188;2023-04-15T12:42:27;4.90;;;4.40;;
795;SDS011;381;48.770;9.188;2023-04-15T12:47:29;6.50;;;5.33;;
795;SDS011;381;48.770;9.188;2023-04-15T12:52:32;4.97;;;4.57;;
795;SDS011;381;48.770;9.188;2023-04-15T12:57:34;4.70;;;4.40;;
795;SDS011;381;48.770;9.188;2023-04-15T13:02:36;4.93;;;4.53;;
795;SDS011;381;48.770;9.188;2023-04-15T13:07:40;5.27;;;4.80;;
795;SDS011;381;48.770;9.188;2023-04-15T13:12:42;4.50;;;3.73;;
795;SDS011;381;48.770;9.188;2023-04-15T13:17:46;4.20;;;3.90;;
795;SDS011;381;48.770;9.188;2023-04-15T13:22:50;4.27;;;3.97;;
795;SDS011;381;48.770;9.188;2023-04-15T13:27:53;4.47;;;3.87;;
795;SDS011;381;48.770;9.188;2023-04-15T13:32:55;4.73;;;4.10;;
795;SDS011;381;48.770;9.188;2023-04-15T13:37:58;4.00;;;3.70;;
795;SDS011;381;48.770;9.188;2023-04-15T13:43:00;4.40;;;3.97;;
795;SDS011;381;48.770;9.188;2023-04-15T13:48:03;3.43;;;3.13;;
795;SDS011;381;48.770;9.188;2023-04-15T13:53:07;2.83;;;2.67;;
795;SDS011;381;48.770;9.188;2023-04-15T13:58:09;2.57;;;1.90;;
795;SDS011;381;48.770;9.188;2023-04-15T14:03:12;2.60;;;2.40;;
795;SDS011;381;48.770;9.188;2023-04-15T14:08:15;2.23;;;2.13;;
795;SDS011;381;48.770;9.188;2023-04-15T14:13:17;3.10;;;2.90;;
795;SDS011;381;48.770;9.188;2023-04-15T14:18:19;2.70;;;2.60;;
795;SDS011;381;48.770;9.188;2023-04-15T14:23:23;2.80;;;2.40;;
795;SDS011;381;48.770;9.188;2023-04-15T14:28:25;2.50;;;2.30;;
795;SDS011;381;48.770;9.188;2023-04-15T14:33:27;3.10;;;2.60;;
795;SDS011;381;48.770;9.188;2023-04-15T14:38:32;2.80;;;2.60;;
795;SDS011;381;48.770;9.188;2023-04-15T14:43:37;2.53;;;2.30;;
795;SDS011;381;48.770;9.188;2023-04-15T14:48:39;2.33;;;2.23;;
795;SDS011;381;48.770;9.188;2023-04-15T14:53:44;4.10;;;1.90;;
795;SDS011;381;48.770;9.188;2023-04-15T14:58:46;2.60;;;2.40;;
795;SDS011;381;48.770;9.188;2023-04-15T15:03:48;6.27;;;2.30;;
795;SDS011;381;48.770;9.188;2023-04-15T15:08:52;3.90;;;2.80;;
795;SDS011;381;48.770;9.188;2023-04-15T15:13:54;3.40;;;3.20;;
795;SDS011;381;48.770;9.188;2023-04-15T15:18:56;3.33;;;3.03;;
795;SDS011;381;48.770;9.188;2023-04-15T15:23:59;3.17;;;2.60;;
795;SDS011;381;48.770;9.188;2023-04-15T15:29:01;2.90;;;2.70;;
795;SDS011;381;48.770;9.188;2023-04-15T15:34:06;3.03;;;2.83;;
795;SDS011;381;48.770;9.188;2023-04-15T15:39:09;5.23;;;3.30;;
795;SDS011;381;48.770;9.188;2023-04-15T15:44:11;3.27;;;3.07;;
795;SDS011;381;48.770;9.188;2023-04-15T15:49:13;3.27;;;3.07;;
795;SDS011;381;48.770;9.188;2023-04-15T15:54:17;4.53;;;3.53;;
795;SDS011;381;48.770;9.188;2023-04-15T15:59:19;3.43;;;3.23;;
795;SDS011;381;48.770;9.188;2023-04-15T16:04:21;3.37;;;3.13;;
795;SDS011;381;48.770;9.188;2023-04-15T16:09:24;3.73;;;3.53;;
795;SDS011;381;48.770;9.188;2023-04-15T16:14:26;4.13;;;3.50;;
795;SDS011;381;48.770;9.188;2023-04-15T16:19:29;3.10;;;2.90;;
795;SDS011;381;48.770;9.188;2023-04-15T16:24:32;3.60;;;3.17;;
795;SDS011;381;48.770;9.188;2023-04-15T16:29:34;3.03;;;2.73;;
795;SDS011;381;48.770;9.188;2023-04-15T16:34:36;3.70;;;3.40;;
795;SDS011;381;48.770;9.188;2023-04-15T16:39:41;4.23;;;3.93;;
795;SDS011;381;48.770;9.188;2023-04-15T16:44:43;4.53;;;4.13;;
795;SDS011;381;48.770;9.188;2023-04-15T16:49:46;4.10;;;3.80;;
795;SDS011;381;48.770;9.188;2023-04-15T16:54:49;4.70;;;4.30;;
795;SDS011;381;48.770;9.188;2023-04-15T16:59:52;5.10;;;4.77;;
795;SDS011;381;48.770;9.188;2023-04-15T17:04:54;4.13;;;3.83;;
795;SDS011;381;48.770;9.188;2023-04-15T17:09:58;5.23;;;4.90;;
795;SDS011;381;48.770;9.188;2023-04-15T17:15:03;5.80;;;5.30;;
795;SDS011;381;48.770;9.188;2023-04-15T17:20:06;4.77;;;4.33;;
795;SDS011;381;48.770;9.188;2023-04-15T17:25:10;6.20;;;5.80;;
795;SDS011;381;48.770;9.188;2023-04-15T17:30:13;6.07;;;5.63;;
795;SDS011;381;48.770;9.188;2023-04-15T17:35:15;6.50;;;5.33;;
795;SDS011;381;48.770;9.188;2023-04-15T17:40:19;5.23;;;4.87;;
795;SDS011;381;48.770;9.188;2023-04-15T17:45:21;5.07;;;4.50;;
795;SDS011;381;48.770;9.188;2023-04-15T17:50:23;5.60;;;4.97;;
795;SDS011;381;48.770;9.188;2023-04-15T17:55:27;5.70;;;5.40;;
795;SDS011;381;48.770;9.188;2023-04-15T18:00:29;5.13;;;4.83;;
795;SDS011;381;48.770;9.188;2023-04-15T18:05:31;4.90;;;4.50;;
795;SDS011;381;48.770;9.188;2023-04-15T18:10:35;4.83;;;4.63;;
795;SDS011;381;48.770;9.188;2023-04-15T18:15:38;5.00;;;4.70;;
795;SDS011;381;48.770;9.188;2023-04-15T18:20:40;6.73;;;6.23;;
795;SDS011;381;48.770;9.188;2023-04-15T18:25:44;8.07;;;7.47;;
795;SDS011;381;48.770;9.188;2023-04-15T18:30:46;7.10;;;6.60;;
795;SDS011;381;48.770;9.188;2023-04-15T18:35:48;8.30;;;7.40;;
795;SDS011;381;48.770;9.188;2023-04-15T18:40:52;8.57;;;7.90;;
795;SDS011;381;48.770;9.188;2023-04-15T18:45:54;10.00;;;9.30;;
795;SDS011;381;48.770;9.188;2023-04-15T18:50:56;8.43;;;7.97;;
795;SDS011;381;48.770;9.188;2023-04-15T18:55:59;6.23;;;5.83;;
795;SDS011;381;48.770;9.188;2023-04-15T19:01:02;8.60;;;8.20;;
795;SDS011;381;48.770;9.188;2023-04-15T19:06:04;8.90;;;8.43;;
795;SDS011;381;48.770;9.188;2023-04-15T19:11:08;10.07;;;9.50;;
795;SDS011;381;48.770;9.188;2023-04-15T19:16:10;12.27;;;11.57;;
795;SDS011;381;48.770;9.188;2023-04-15T19:21:12;12.20;;;11.50;;
795;SDS011;381;48.770;9.188;2023-04-15T19:26:16;13.80;;;13.00;;
795;SDS011;381;48.770;9.188;2023-04-15T19:31:18;12.77;;;12.07;;
795;SDS011;381;48.770;9.188;2023-04-15T19:36:20;15.17;;;14.23;;
795;SDS011;381;48.770;9.188;2023-04-15T19:41:24;13.17;;;12.30;;
795;SDS011;381;48.770;9.188;2023-04-15T19:46:26;16.67;;;15.67;;
795;SDS011;381;48.770;9.188;2023-04-15T19:51:28;15.70;;;14.80;;
795;SDS011;381;48.770;9.188;2023-04-15T19:56:32;17.20;;;16.10;;
795;SDS011;381;48.770;9.188;2023-04-15T20:01:34;18.30;;;17.03;;
795;SDS011;381;48.770;9.188;2023-04-15T20:06:36;18.57;;;17.37;;
795;SDS011;381;48.770;9.188;2023-04-15T20:11:40;17.83;;;16.63;;
795;SDS011;381;48.770;9.188;2023-04-15T20:16:42;17.87;;;16.67;;
795;SDS011;381;48.770;9.188;2023-04-15T20:21:44;18.23;;;17.03;;
795;SDS011;381;48.770;9.188;2023-04-15T20:26:48;19.20;;;17.90;;
795;SDS011;381;48.770;9.188;2023-04-15T20:31:50;18.30;;;17.00;;
795;SDS011;381;48.770;9.188;2023-04-15T20:36:52;19.87;;;18.37;;
795;SDS011;381;48.770;9.188;2023-04-15T20:41:55;15.10;;;14.00;;
795;SDS011;381;48.770;9.188;2023-04-15T20:46:57;19.20;;;17.80;;
795;SDS011;381;48.770;9.188;2023-04-15T20:51:59;19.80;;;18.30;;
795;SDS011;381;48.770;9.188;2023-04-15T20:57:03;19.70;;;18.23;;
795;SDS011;381;48.770;9.188;2023-04-15T21:02:05;19.53;;;18.23;;
795;SDS011;381;48.770;9.188;2023-04-15T21:07:07;18.80;;;17.60;;
795;SDS011;381;48.770;9.188;2023-04-15T21:12:11;20.00;;;18.70;;
795;SDS011;381;48.770;9.188;2023-04-15T21:17:13;19.00;;;17.70;;
795;SDS011;381;48.770;9.188;2023-04-15T21:22:15;20.73;;;19.33;;
795;SDS011;381;48.770;9.188;2023-04-15T21:27:19;20.00;;;18.70;;
795;SDS011;381;48.770;9.188;2023-04-15T21:32:21;19.33;;;18.03;;
795;SDS011;381;48.770;9.188;2023-04-15T21:37:23;20.57;;;19.17;;
795;SDS011;381;48.770;9.188;2023-04-15T21:42:26;22.47;;;20.90;;
795;SDS011;381;48.770;9.188;2023-04-15T21:47:29;21.80;;;20.37;;
795;SDS011;381;48.770;9.188;2023-04-15T21:52:32;21.57;;;20.03;;
795;SDS011;381;48.770;9.188;2023-04-15T21:57:35;22.30;;;20.80;;
795;SDS011;381;48.770;9.188;2023-04-15T22:02:37;22.80;;;21.10;;
795;SDS011;381;48.770;9.188;2023-04-15T22:07:39;22.87;;;21.07;;
795;SDS011;381;48.770;9.188;2023-04-15T22:12:43;22.27;;;20.50;;
795;SDS011;381;48.770;9.188;2023-04-15T22:17:45;21.93;;;20.40;;
795;SDS011;381;48.770;9.188;2023-04-15T22:22:47;23.97;;;22.10;;
795;SDS011;381;48.770;9.188;2023-04-15T22:27:50;24.77;;;22.90;;
795;SDS011;381;48.770;9.188;2023-04-15T22:32:52;23.40;;;21.63;;
795;SDS011;381;48.770;9.188;2023-04-15T22:37:54;21.67;;;20.07;;
795;SDS011;381;48.770;9.188;2023-04-15T22:42:58;23.60;;;21.80;;
795;SDS011;381;48.770;9.188;2023-04-15T22:48:00;23.23;;;21.50;;
795;SDS011;381;48.770;9.188;2023-04-15T22:53:04;23.10;;;21.30;;
795;SDS011;381;48.770;9.188;2023-04-15T22:58:08;22.80;;;21.10;;
795;SDS011;381;48.770;9.188;2023-04-15T23:03:10;24.30;;;22.43;;
795;SDS011;381;48.770;9.188;2023-04-15T23:08:12;23.83;;;22.03;;
795;SDS011;381;48.770;9.188;2023-04-15T23:13:15;24.10;;;22.20;;
795;SDS011;381;48.770;9.188;2023-04-15T23:18:17;22.60;;;20.90;;
795;SDS011;381;48.770;9.188;2023-04-15T23:23:19;22.03;;;20.27;;
795;SDS011;381;48.770;9.188;2023-04-15T23:28:23;23.77;;;21.87;;
795;SDS011;381;48.770;9.188;2023-04-15T23:33:25;24.33;;;22.53;;
795;SDS011;381;48.770;9.188;2023-04-15T23:38:27;25.20;;;23.20;;
795;SDS011;381;48.770;9.188;2023-04-15T23:43:30;24.83;;;22.83;;
795;SDS011;381;48.770;9.188;2023-04-15T23:48:32;25.97;;;23.87;;
795;SDS011;381;48.770;9.188;2023-04-15T23:53:35;26.40;;;24.30;;
795;SDS011;381;48.770;9.188;2023-04-15T23:58:38;26.50;;;24.50;;
